Time;durP1;ratioP1;P1;durP2;ratioP2;P2;SDS_P1;SDS_P2;PMS_P1;PMS_P2;Temp;Humidity;BMP_temperature;BMP_pressure;BME280_temperature;BME280_humidity;BME280_pressure;Samples;Min_cycle;Max_cycle;Signal;HPM_P1;HPM_P2
2021/11/15 00:01:51;;;;;;;22.35;15.80;;;8.10;99.90;;;;;;5038654;28;20048;-51
2021/11/15 00:04:19;;;;;;;19.48;15.25;;;8.10;99.90;;;;;;5036404;28;20044;-58
2021/11/15 00:06:45;;;;;;;18.90;13.77;;;8.10;99.90;;;;;;5041269;28;20103;-58
2021/11/15 00:09:13;;;;;;;18.17;13.60;;;8.10;99.90;;;;;;5040041;28;20045;-58
2021/11/15 00:11:39;;;;;;;17.33;13.10;;;8.20;99.90;;;;;;5059419;28;20127;-58
2021/11/15 00:14:06;;;;;;;17.25;12.43;;;8.20;99.90;;;;;;5046708;28;20488;-58
2021/11/15 00:16:34;;;;;;;16.85;12.88;;;8.10;99.90;;;;;;5046463;28;20053;-57
2021/11/15 00:19:01;;;;;;;19.25;13.65;;;8.10;99.90;;;;;;5041627;28;20581;-58
2021/11/15 00:21:27;;;;;;;16.73;12.93;;;8.20;99.90;;;;;;5047278;28;20053;-58
2021/11/15 00:23:53;;;;;;;17.20;14.15;;;8.10;99.90;;;;;;5048147;28;20049;-58
2021/11/15 00:26:19;;;;;;;16.30;12.50;;;8.10;99.90;;;;;;5043486;28;20045;-58
2021/11/15 00:28:46;;;;;;;16.25;12.50;;;8.10;99.90;;;;;;5056641;28;20036;-58
2021/11/15 00:31:12;;;;;;;18.23;12.60;;;8.10;99.90;;;;;;5047885;28;20041;-59
2021/11/15 00:33:38;;;;;;;16.45;12.57;;;8.10;99.90;;;;;;5046726;28;20037;-46
2021/11/15 00:36:04;;;;;;;19.77;12.10;;;8.10;99.90;;;;;;5043354;28;20146;-50
2021/11/15 00:38:30;;;;;;;18.30;12.68;;;8.10;99.90;;;;;;5044284;28;20065;-49
2021/11/15 00:40:56;;;;;;;18.15;12.85;;;8.10;99.90;;;;;;5049520;28;20045;-50
2021/11/15 00:43:23;;;;;;;17.17;12.70;;;8.10;99.90;;;;;;5047882;28;20178;-47
2021/11/15 00:45:49;;;;;;;17.90;13.95;;;8.10;99.90;;;;;;5049325;28;20483;-49
2021/11/15 00:48:15;;;;;;;19.45;13.35;;;8.10;99.90;;;;;;5043995;28;20045;-45
2021/11/15 00:50:41;;;;;;;19.13;14.25;;;8.10;99.90;;;;;;5045587;28;20107;-48
2021/11/15 00:53:08;;;;;;;19.95;14.75;;;8.10;99.90;;;;;;5048651;28;20498;-48
2021/11/15 00:55:34;;;;;;;18.85;13.35;;;8.10;99.90;;;;;;5052830;28;20543;-47
2021/11/15 00:58:02;;;;;;;20.92;14.82;;;8.10;99.90;;;;;;5051863;28;20048;-46
2021/11/15 01:00:31;;;;;;;21.20;15.23;;;8.10;99.90;;;;;;5044344;28;20084;-50
2021/11/15 01:02:59;;;;;;;24.13;16.38;;;8.10;99.90;;;;;;5051888;28;20149;-48
2021/11/15 01:05:25;;;;;;;27.75;18.52;;;8.10;99.90;;;;;;5056255;28;20069;-51
2021/11/15 01:07:52;;;;;;;31.00;20.25;;;8.00;99.90;;;;;;5049480;28;20628;-46
2021/11/15 01:10:21;;;;;;;27.13;18.27;;;8.10;99.90;;;;;;5052074;28;20076;-47
2021/11/15 01:12:47;;;;;;;27.10;18.25;;;8.00;99.90;;;;;;5048464;28;20512;-47
2021/11/15 01:15:17;;;;;;;31.45;20.73;;;8.00;99.90;;;;;;5049116;28;20053;-46
2021/11/15 01:17:43;;;;;;;32.78;19.90;;;8.00;99.90;;;;;;5029822;28;20044;-47
2021/11/15 01:20:12;;;;;;;33.40;20.77;;;8.00;99.90;;;;;;5050283;28;20064;-58
2021/11/15 01:22:39;;;;;;;36.38;21.83;;;8.00;99.90;;;;;;5052461;28;20040;-58
2021/11/15 01:25:06;;;;;;;40.13;23.33;;;7.90;99.90;;;;;;5048027;28;20128;-58
2021/11/15 01:27:33;;;;;;;35.55;22.95;;;7.90;99.90;;;;;;5049951;28;20068;-58
2021/11/15 01:29:59;;;;;;;37.17;21.15;;;7.90;99.90;;;;;;5049340;28;20102;-60
2021/11/15 01:32:25;;;;;;;38.63;22.13;;;7.90;99.90;;;;;;5043168;28;20037;-50
2021/11/15 01:34:51;;;;;;;35.65;21.92;;;7.90;99.90;;;;;;5051860;28;20045;-59
2021/11/15 01:37:18;;;;;;;36.25;22.00;;;7.90;99.90;;;;;;5046283;28;20045;-58
2021/11/15 01:39:44;;;;;;;38.63;23.33;;;7.90;99.90;;;;;;5046577;28;20119;-58
2021/11/15 01:42:10;;;;;;;32.53;21.40;;;7.90;99.90;;;;;;5045809;28;20075;-58
2021/11/15 01:44:37;;;;;;;35.72;23.05;;;7.90;99.90;;;;;;5052321;28;20545;-58
2021/11/15 01:47:04;;;;;;;40.65;21.90;;;7.90;99.90;;;;;;5044123;28;20488;-58
2021/11/15 01:49:30;;;;;;;39.80;21.20;;;7.90;99.90;;;;;;5051315;28;20143;-58
2021/11/15 01:51:56;;;;;;;35.97;20.23;;;7.90;99.90;;;;;;5051096;28;20378;-58
2021/11/15 01:54:23;;;;;;;34.55;21.05;;;7.80;99.90;;;;;;5046127;28;20045;-58
2021/11/15 01:56:50;;;;;;;39.35;22.13;;;7.90;99.90;;;;;;5052028;28;20102;-58
2021/11/15 01:59:17;;;;;;;34.97;21.48;;;7.90;99.90;;;;;;5050554;28;20377;-58
2021/11/15 02:01:43;;;;;;;36.13;19.55;;;7.90;99.90;;;;;;5060441;28;20040;-58
2021/11/15 02:04:10;;;;;;;33.17;19.08;;;7.90;99.90;;;;;;5050337;28;20099;-57
2021/11/15 02:06:37;;;;;;;32.20;18.98;;;7.90;99.90;;;;;;5034497;28;20396;-58
2021/11/15 02:09:06;;;;;;;32.45;21.00;;;7.90;99.90;;;;;;5043597;28;20071;-58
2021/11/15 02:11:34;;;;;;;32.95;20.95;;;7.90;99.90;;;;;;5048547;28;20041;-58
2021/11/15 02:14:01;;;;;;;33.17;18.38;;;7.80;99.90;;;;;;5050660;28;20450;-58
2021/11/15 02:16:28;;;;;;;32.25;19.15;;;7.80;99.90;;;;;;5053666;28;20040;-59
2021/11/15 02:18:55;;;;;;;29.05;18.80;;;7.80;99.90;;;;;;5048789;28;20127;-58
2021/11/15 02:21:23;;;;;;;31.10;19.60;;;7.80;99.90;;;;;;5054169;28;20052;-58
2021/11/15 02:23:51;;;;;;;34.85;19.52;;;7.80;99.90;;;;;;5051641;28;20069;-58
2021/11/15 02:26:20;;;;;;;33.35;19.55;;;7.80;99.90;;;;;;5052212;28;20128;-51
2021/11/15 02:28:49;;;;;;;28.02;16.92;;;7.70;99.90;;;;;;5034533;28;20043;-58
2021/11/15 02:31:22;;;;;;;30.27;17.40;;;7.80;99.90;;;;;;5055442;28;20052;-58
2021/11/15 02:33:53;;;;;;;30.25;16.83;;;7.70;99.90;;;;;;5054711;28;20484;-58
2021/11/15 02:36:21;;;;;;;31.53;18.23;;;7.70;99.90;;;;;;5047638;28;20412;-58
2021/11/15 02:38:48;;;;;;;36.42;20.63;;;7.70;99.90;;;;;;5045507;28;20047;-58
2021/11/15 02:41:16;;;;;;;31.50;17.88;;;7.70;99.90;;;;;;5044433;28;20377;-58
2021/11/15 02:43:42;;;;;;;32.90;17.42;;;7.70;99.90;;;;;;5043895;28;20041;-58
2021/11/15 02:46:08;;;;;;;30.63;16.27;;;7.70;99.90;;;;;;5045906;28;20132;-58
2021/11/15 02:48:34;;;;;;;34.22;18.67;;;7.60;99.90;;;;;;5054468;28;20053;-58
2021/11/15 02:51:01;;;;;;;28.40;18.00;;;7.60;99.90;;;;;;5035767;28;20033;-58
2021/11/15 02:53:27;;;;;;;34.00;18.23;;;7.60;99.90;;;;;;5047073;28;20050;-58
2021/11/15 02:55:53;;;;;;;31.75;17.92;;;7.60;99.90;;;;;;5056379;28;20045;-58
2021/11/15 02:58:19;;;;;;;33.30;19.40;;;7.60;99.90;;;;;;5047399;28;20048;-58
2021/11/15 03:01:02;;;;;;;29.38;16.23;;;7.50;99.90;;;;;;5042430;28;20052;-58
2021/11/15 03:03:28;;;;;;;29.30;17.35;;;7.50;99.90;;;;;;5045115;28;20041;-48
2021/11/15 03:05:55;;;;;;;33.15;17.20;;;7.50;99.90;;;;;;5065300;28;20048;-47
2021/11/15 03:08:24;;;;;;;33.78;17.48;;;7.50;99.90;;;;;;5049765;28;20056;-52
2021/11/15 03:10:58;;;;;;;32.10;17.88;;;7.50;99.90;;;;;;5047122;28;20081;-59
2021/11/15 03:13:25;;;;;;;27.50;16.88;;;7.40;99.90;;;;;;5054828;28;20049;-58
2021/11/15 03:15:53;;;;;;;33.10;17.40;;;7.40;99.90;;;;;;5054833;28;20045;-58
2021/11/15 03:18:23;;;;;;;30.00;17.40;;;7.40;99.90;;;;;;5047234;28;20061;-58
2021/11/15 03:21:05;;;;;;;32.28;17.52;;;7.40;99.90;;;;;;5046994;28;20094;-57
2021/11/15 03:23:33;;;;;;;;;;;7.40;99.90;;;;;;5063245;28;20514;-58
2021/11/15 03:26:00;;;;;;;28.75;18.38;;;7.40;99.90;;;;;;5065115;28;19916;-57
2021/11/15 03:28:41;;;;;;;32.47;17.85;;;7.30;99.90;;;;;;5038599;28;20417;-58
2021/11/15 03:31:13;;;;;;;30.92;17.35;;;7.30;99.90;;;;;;5047143;28;20045;-57
2021/11/15 03:33:41;;;;;;;33.22;17.42;;;7.30;99.90;;;;;;5044006;28;20599;-58
2021/11/15 03:36:07;;;;;;;27.40;16.38;;;7.30;99.90;;;;;;5044596;28;20038;-58
2021/11/15 03:38:35;;;;;;;27.23;16.02;;;7.30;99.90;;;;;;5054063;28;20369;-58
2021/11/15 03:41:02;;;;;;;24.63;14.43;;;7.30;99.90;;;;;;5052620;28;20126;-58
2021/11/15 03:43:28;;;;;;;23.00;13.93;;;7.30;99.90;;;;;;5050176;28;20153;-58
2021/11/15 03:45:55;;;;;;;24.42;13.68;;;7.30;99.90;;;;;;5050858;28;20084;-58
2021/11/15 03:48:21;;;;;;;23.92;14.55;;;7.30;99.90;;;;;;5054934;28;20044;-58
2021/11/15 03:50:54;;;;;;;24.02;15.05;;;7.30;99.90;;;;;;5050878;28;20049;-58
2021/11/15 03:53:25;;;;;;;23.42;14.05;;;7.30;99.90;;;;;;5048696;28;20132;-58
2021/11/15 03:55:52;;;;;;;22.48;12.90;;;7.20;99.90;;;;;;5035362;28;20041;-58
2021/11/15 03:58:18;;;;;;;25.13;13.68;;;7.20;99.90;;;;;;5031778;28;20507;-58
2021/11/15 04:00:44;;;;;;;21.55;13.10;;;7.20;99.90;;;;;;5048357;28;20049;-58
2021/11/15 04:03:20;;;;;;;25.38;13.85;;;7.20;99.90;;;;;;5040817;28;20038;-58
2021/11/15 04:05:56;;;;;;;25.15;13.45;;;7.20;99.90;;;;;;5039785;28;20053;-58
2021/11/15 04:08:22;;;;;;;25.08;14.15;;;7.20;99.90;;;;;;5029764;28;20140;-58
2021/11/15 04:10:50;;;;;;;24.73;13.70;;;7.20;99.90;;;;;;5061882;28;20040;-58
2021/11/15 04:13:21;;;;;;;19.63;12.50;;;7.10;99.90;;;;;;5049137;28;20044;-58
2021/11/15 04:15:50;;;;;;;28.77;15.85;;;7.10;99.90;;;;;;5046827;28;20063;-58
2021/11/15 04:18:22;;;;;;;28.27;15.68;;;7.10;99.90;;;;;;5047971;28;20049;-58
2021/11/15 04:20:49;;;;;;;27.35;14.63;;;7.10;99.90;;;;;;5052277;28;20079;-58
2021/11/15 04:23:16;;;;;;;26.35;14.98;;;7.10;99.90;;;;;;5050233;28;20045;-58
2021/11/15 04:25:42;;;;;;;27.48;15.02;;;7.00;99.90;;;;;;5040374;28;20049;-49
2021/11/15 04:28:08;;;;;;;29.77;15.93;;;7.10;99.90;;;;;;5044208;28;20037;-50
2021/11/15 04:30:35;;;;;;;29.35;16.40;;;7.10;99.90;;;;;;5057172;28;20079;-50
2021/11/15 04:33:03;;;;;;;28.35;17.20;;;7.00;99.90;;;;;;5046377;28;20539;-51
2021/11/15 04:35:30;;;;;;;28.30;15.77;;;7.00;99.90;;;;;;5044440;28;20119;-49
2021/11/15 04:37:57;;;;;;;25.92;15.07;;;7.00;99.90;;;;;;5040566;28;20530;-47
2021/11/15 04:40:24;;;;;;;31.33;15.80;;;7.10;99.90;;;;;;5047761;28;20110;-50
2021/11/15 04:42:50;;;;;;;27.10;15.40;;;7.10;99.90;;;;;;5049172;28;20049;-58
2021/11/15 04:45:16;;;;;;;31.98;15.95;;;7.10;99.90;;;;;;5030044;28;20407;-58
2021/11/15 04:47:43;;;;;;;36.08;17.33;;;7.10;99.90;;;;;;5042751;28;20107;-58
2021/11/15 04:50:11;;;;;;;34.15;17.27;;;7.10;99.90;;;;;;5047028;28;20033;-58
2021/11/15 04:52:39;;;;;;;28.83;16.80;;;7.10;99.90;;;;;;5044376;28;20076;-58
2021/11/15 04:55:08;;;;;;;32.55;16.83;;;7.10;99.90;;;;;;5005263;28;20073;-58
2021/11/15 04:57:35;;;;;;;31.00;15.45;;;7.00;99.90;;;;;;5045778;28;20615;-58
2021/11/15 05:00:04;;;;;;;30.83;17.60;;;7.10;99.90;;;;;;5036113;28;20045;-58
2021/11/15 05:02:30;;;;;;;27.75;15.85;;;7.00;99.90;;;;;;5049713;28;20042;-58
2021/11/15 05:04:56;;;;;;;29.67;15.75;;;7.00;99.90;;;;;;5038894;28;20110;-58
2021/11/15 05:07:22;;;;;;;28.60;15.15;;;7.00;99.90;;;;;;5046832;28;20502;-58
2021/11/15 05:09:48;;;;;;;25.85;15.48;;;7.00;99.90;;;;;;5031851;28;20118;-58
2021/11/15 05:12:14;;;;;;;26.38;15.70;;;7.00;99.90;;;;;;5042427;28;20103;-58
2021/11/15 05:14:40;;;;;;;26.42;14.55;;;7.00;99.90;;;;;;5030516;28;20042;-58
2021/11/15 05:17:09;;;;;;;25.50;15.57;;;6.90;99.90;;;;;;5036775;28;20102;-58
2021/11/15 05:19:35;;;;;;;27.02;14.77;;;6.90;99.90;;;;;;5031286;28;20048;-58
2021/11/15 05:22:01;;;;;;;25.95;15.85;;;6.90;99.90;;;;;;5055505;28;20099;-59
2021/11/15 05:24:27;;;;;;;27.27;15.23;;;6.90;99.90;;;;;;5048801;28;20174;-58
2021/11/15 05:26:53;;;;;;;28.65;15.70;;;6.80;99.90;;;;;;5046899;28;20124;-58
2021/11/15 05:29:19;;;;;;;27.05;16.05;;;6.80;99.90;;;;;;5046248;28;20045;-59
2021/11/15 05:31:45;;;;;;;28.27;15.65;;;6.80;99.90;;;;;;5050153;28;20055;-58
2021/11/15 05:34:11;;;;;;;26.17;14.90;;;6.80;99.90;;;;;;5045024;28;20044;-58
2021/11/15 05:36:37;;;;;;;29.52;15.82;;;6.80;99.90;;;;;;5044766;28;20589;-58
2021/11/15 05:39:05;;;;;;;29.60;16.90;;;6.80;99.90;;;;;;5048098;28;20484;-58
2021/11/15 05:41:31;;;;;;;33.13;17.13;;;6.70;99.90;;;;;;5046416;28;20049;-57
2021/11/15 05:43:57;;;;;;;27.98;15.52;;;6.70;99.90;;;;;;5065134;28;20106;-57
2021/11/15 05:46:23;;;;;;;32.75;16.67;;;6.60;99.90;;;;;;5044718;28;20423;-57
2021/11/15 05:48:49;;;;;;;32.15;16.75;;;6.70;99.90;;;;;;5049789;28;20049;-57
2021/11/15 05:51:15;;;;;;;35.10;17.52;;;6.70;99.90;;;;;;5042221;28;20045;-57
2021/11/15 05:53:46;;;;;;;29.33;16.25;;;6.70;99.90;;;;;;5041082;28;20119;-57
2021/11/15 05:56:13;;;;;;;35.70;17.30;;;6.70;99.90;;;;;;5046899;28;20053;-57
2021/11/15 05:58:39;;;;;;;34.08;17.95;;;6.70;99.90;;;;;;5042970;28;20120;-57
2021/11/15 06:01:05;;;;;;;40.05;17.67;;;6.60;99.90;;;;;;5047774;28;20051;-57
2021/11/15 06:03:31;;;;;;;38.72;18.33;;;6.60;99.90;;;;;;5047988;28;20374;-58
2021/11/15 06:05:57;;;;;;;35.20;17.50;;;6.60;99.90;;;;;;5038581;28;20069;-58
2021/11/15 06:08:23;;;;;;;34.60;16.17;;;6.60;99.90;;;;;;5041859;28;20107;-57
2021/11/15 06:10:49;;;;;;;40.58;18.33;;;6.70;99.90;;;;;;5050019;28;20564;-57
2021/11/15 06:13:15;;;;;;;35.75;17.88;;;6.60;99.90;;;;;;5048657;28;20041;-57
2021/11/15 06:15:42;;;;;;;42.22;19.30;;;6.60;99.90;;;;;;5041636;28;20049;-57
2021/11/15 06:18:08;;;;;;;40.63;17.75;;;6.60;99.90;;;;;;5041397;28;20077;-57
2021/11/15 06:20:34;;;;;;;44.03;20.67;;;6.60;99.90;;;;;;5043726;28;20411;-57
2021/11/15 06:23:00;;;;;;;41.85;19.48;;;6.60;99.90;;;;;;5036783;28;20116;-51
2021/11/15 06:25:27;;;;;;;43.97;18.75;;;6.60;99.90;;;;;;5034999;28;20079;-49
2021/11/15 06:27:53;;;;;;;48.35;19.83;;;6.60;99.90;;;;;;5037697;28;20037;-57
2021/11/15 06:30:20;;;;;;;45.50;20.13;;;6.50;99.90;;;;;;5061563;28;20405;-57
2021/11/15 06:32:46;;;;;;;43.78;18.65;;;6.60;99.90;;;;;;5046707;28;20053;-57
2021/11/15 06:35:13;;;;;;;44.53;20.98;;;6.60;99.90;;;;;;5034071;28;20539;-58
2021/11/15 06:37:39;;;;;;;45.70;20.48;;;6.60;99.90;;;;;;5037102;28;20037;-51
2021/11/15 06:40:08;;;;;;;57.80;26.92;;;6.60;99.90;;;;;;5036854;28;20049;-49
2021/11/15 06:42:35;;;;;;;61.05;26.92;;;6.70;99.90;;;;;;5032726;28;20518;-47
2021/11/15 06:45:01;;;;;;;50.72;24.05;;;6.90;99.90;;;;;;5044737;28;20140;-46
2021/11/15 06:47:33;;;;;;;55.65;26.80;;;6.90;99.90;;;;;;5032633;28;20519;-48
2021/11/15 06:50:02;;;;;;;55.20;26.38;;;6.90;99.90;;;;;;5033120;28;20091;-49
2021/11/15 06:52:28;;;;;;;51.17;22.92;;;7.00;99.90;;;;;;5053428;28;20073;-49
2021/11/15 06:54:54;;;;;;;48.50;21.15;;;7.00;99.90;;;;;;5033094;28;20041;-48
2021/11/15 06:57:20;;;;;;;48.53;20.65;;;7.00;99.90;;;;;;5045335;28;20071;-56
2021/11/15 06:59:46;;;;;;;46.92;23.95;;;7.00;99.90;;;;;;5039737;28;20110;-48
2021/11/15 07:02:12;;;;;;;44.45;22.42;;;7.00;99.90;;;;;;5038074;28;20136;-50
2021/11/15 07:04:39;;;;;;;46.63;21.35;;;7.10;99.90;;;;;;5037866;28;20041;-50
2021/11/15 07:07:05;;;;;;;42.75;19.08;;;7.00;99.90;;;;;;5038865;28;20449;-54
2021/11/15 07:09:31;;;;;;;80.38;47.10;;;7.10;99.90;;;;;;5048978;28;20336;-48
2021/11/15 07:11:57;;;;;;;61.90;33.25;;;7.00;99.90;;;;;;5034794;28;20452;-48
2021/11/15 07:14:23;;;;;;;52.03;24.23;;;7.00;99.90;;;;;;5036994;28;20049;-47
2021/11/15 07:16:49;;;;;;;51.03;25.45;;;7.00;99.90;;;;;;5045933;28;20101;-48
2021/11/15 07:19:15;;;;;;;57.35;28.33;;;7.10;99.90;;;;;;5040898;28;20186;-50
2021/11/15 07:21:42;;;;;;;47.28;22.50;;;7.10;99.90;;;;;;5042686;28;20048;-47
2021/11/15 07:24:08;;;;;;;42.35;19.85;;;7.10;99.90;;;;;;5049329;28;20048;-51
2021/11/15 07:26:34;;;;;;;46.05;22.00;;;7.10;99.90;;;;;;5049299;28;20201;-49
2021/11/15 07:29:00;;;;;;;48.28;22.90;;;7.00;99.90;;;;;;5050195;28;20067;-60
2021/11/15 07:31:27;;;;;;;105.18;67.18;;;7.00;99.90;;;;;;5048155;28;20048;-60
2021/11/15 07:33:56;;;;;;;46.72;20.75;;;7.00;99.90;;;;;;5050623;28;20048;-60
2021/11/15 07:36:22;;;;;;;50.47;23.50;;;7.00;99.90;;;;;;5048351;28;20033;-59
2021/11/15 07:38:48;;;;;;;39.28;20.13;;;7.00;99.90;;;;;;5049211;28;20473;-60
2021/11/15 07:41:15;;;;;;;48.00;26.73;;;6.90;99.90;;;;;;5045852;28;20076;-62
2021/11/15 07:43:41;;;;;;;32.55;17.63;;;6.90;99.90;;;;;;5045842;28;20056;-50
2021/11/15 07:46:07;;;;;;;33.42;16.67;;;6.90;99.90;;;;;;5064508;28;20191;-51
2021/11/15 07:48:33;;;;;;;30.30;18.40;;;6.90;99.90;;;;;;5066638;28;20095;-56
2021/11/15 07:51:01;;;;;;;31.13;16.17;;;6.90;99.90;;;;;;5048669;28;20064;-57
2021/11/15 07:53:36;;;;;;;39.85;16.58;;;6.80;99.90;;;;;;5045850;28;20513;-57
2021/11/15 07:56:05;;;;;;;35.28;16.90;;;6.80;99.90;;;;;;5072515;28;20457;-59
2021/11/15 07:58:31;;;;;;;31.30;15.15;;;6.80;99.90;;;;;;5056722;28;20106;-59
2021/11/15 08:00:57;;;;;;;25.90;11.90;;;6.90;99.90;;;;;;5053534;28;20102;-58
2021/11/15 08:03:23;;;;;;;28.88;13.35;;;6.80;99.90;;;;;;5054877;28;20461;-59
2021/11/15 08:05:49;;;;;;;26.17;12.30;;;6.90;99.90;;;;;;5049921;28;20098;-59
2021/11/15 08:08:15;;;;;;;23.17;12.02;;;6.90;99.90;;;;;;5060422;28;20071;-59
2021/11/15 08:10:41;;;;;;;23.10;11.18;;;6.90;99.90;;;;;;5053568;28;20116;-59
2021/11/15 08:13:08;;;;;;;27.20;12.80;;;6.80;99.90;;;;;;5035081;28;20419;-60
2021/11/15 08:15:34;;;;;;;23.67;12.43;;;6.80;99.90;;;;;;5056271;28;20037;-59
2021/11/15 08:18:02;;;;;;;24.73;11.38;;;6.80;99.90;;;;;;5065029;28;20056;-59
2021/11/15 08:20:31;;;;;;;16.48;8.95;;;6.80;99.90;;;;;;5057847;28;20040;-59
2021/11/15 08:23:00;;;;;;;21.65;11.18;;;6.70;99.90;;;;;;5052631;28;20044;-60
2021/11/15 08:25:26;;;;;;;22.35;11.43;;;6.70;99.90;;;;;;5006596;28;20044;-59
2021/11/15 08:27:56;;;;;;;22.05;11.98;;;6.60;99.90;;;;;;5051648;28;20056;-59
2021/11/15 08:30:24;;;;;;;24.40;10.98;;;6.70;99.90;;;;;;5055275;28;20415;-58
2021/11/15 08:32:51;;;;;;;23.23;11.95;;;6.60;99.90;;;;;;5039322;28;20127;-55
2021/11/15 08:35:23;;;;;;;23.95;10.95;;;6.60;99.90;;;;;;5048093;28;20040;-55
2021/11/15 08:38:17;;;;;;;21.50;10.43;;;6.70;99.90;;;;;;5048067;28;20764;-55
2021/11/15 08:40:45;;;;;;;24.10;11.25;;;6.70;99.90;;;;;;5047982;28;20492;-56
2021/11/15 08:43:13;;;;;;;20.02;11.10;;;6.70;99.90;;;;;;5048315;28;20106;-55
2021/11/15 08:45:40;;;;;;;23.17;10.45;;;6.70;99.90;;;;;;5044956;28;20069;-56
2021/11/15 08:48:06;;;;;;;22.70;11.98;;;6.70;99.90;;;;;;5046169;28;20049;-55
2021/11/15 08:50:33;;;;;;;25.10;11.63;;;6.80;99.90;;;;;;5045619;28;20194;-55
2021/11/15 08:52:59;;;;;;;21.58;11.32;;;6.80;99.90;;;;;;5046460;28;20123;-56
2021/11/15 08:55:26;;;;;;;22.90;11.27;;;6.80;99.90;;;;;;5047918;28;20045;-54
2021/11/15 08:57:53;;;;;;;25.75;9.82;;;6.80;99.90;;;;;;5047637;28;20041;-55
2021/11/15 09:00:20;;;;;;;22.10;11.93;;;6.80;99.90;;;;;;5045949;28;20179;-53
2021/11/15 09:02:46;;;;;;;22.73;11.18;;;6.70;99.90;;;;;;5047825;28;20037;-56
2021/11/15 09:05:12;;;;;;;26.65;11.73;;;6.70;99.90;;;;;;5047739;28;20087;-56
2021/11/15 09:07:40;;;;;;;25.92;12.63;;;6.70;99.90;;;;;;5047374;28;20045;-56
2021/11/15 09:10:08;;;;;;;27.35;11.77;;;6.80;99.90;;;;;;5047644;28;20040;-56
2021/11/15 09:12:36;;;;;;;24.85;11.55;;;6.70;99.90;;;;;;5051531;28;20044;-54
2021/11/15 09:15:07;;;;;;;27.52;13.40;;;6.60;99.90;;;;;;5051073;28;20041;-54
2021/11/15 09:17:35;;;;;;;25.13;12.18;;;6.60;99.90;;;;;;5048460;28;20448;-53
2021/11/15 09:20:02;;;;;;;22.55;11.85;;;6.70;99.90;;;;;;5051816;28;20381;-56
2021/11/15 09:22:29;;;;;;;25.75;12.75;;;6.70;99.90;;;;;;5051648;28;20044;-56
2021/11/15 09:24:55;;;;;;;23.23;12.25;;;6.70;99.90;;;;;;5050256;28;20056;-56
2021/11/15 09:27:22;;;;;;;27.83;13.15;;;6.70;99.90;;;;;;5051232;28;20055;-56
2021/11/15 09:29:50;;;;;;;25.60;12.02;;;6.70;99.90;;;;;;5053488;28;20140;-56
2021/11/15 09:32:18;;;;;;;25.20;13.77;;;6.70;99.90;;;;;;5050951;28;20504;-56
2021/11/15 09:34:44;;;;;;;23.35;12.40;;;6.70;99.90;;;;;;5049546;28;20052;-56
2021/11/15 09:37:11;;;;;;;24.85;13.50;;;6.70;99.90;;;;;;5051438;28;20511;-56
2021/11/15 09:39:44;;;;;;;25.15;11.63;;;6.80;99.90;;;;;;5051039;28;20099;-57
2021/11/15 09:42:11;;;;;;;25.85;12.43;;;6.80;99.90;;;;;;5066456;28;20057;-56
2021/11/15 09:44:37;;;;;;;28.02;13.18;;;6.80;99.90;;;;;;5049303;28;20059;-56
2021/11/15 09:47:07;;;;;;;24.17;12.35;;;6.80;99.90;;;;;;5050807;28;20132;-56
2021/11/15 09:49:34;;;;;;;30.33;14.10;;;6.80;99.90;;;;;;5049252;28;20492;-56
2021/11/15 09:52:00;;;;;;;30.92;13.43;;;6.80;99.90;;;;;;5049899;28;20048;-57
2021/11/15 09:54:27;;;;;;;28.85;13.88;;;6.80;99.90;;;;;;5051020;28;20518;-57
2021/11/15 09:56:54;;;;;;;28.42;13.93;;;6.90;99.90;;;;;;5046662;28;20144;-56
2021/11/15 09:59:21;;;;;;;31.10;13.55;;;6.90;99.90;;;;;;5050011;28;20504;-56
2021/11/15 10:01:49;;;;;;;28.00;13.15;;;6.90;99.90;;;;;;5052127;28;20165;-56
2021/11/15 10:04:18;;;;;;;24.70;12.68;;;6.80;99.90;;;;;;5050873;28;20049;-56
2021/11/15 10:06:47;;;;;;;23.23;12.38;;;6.90;99.90;;;;;;5069096;28;20068;-56
2021/11/15 10:09:13;;;;;;;24.13;12.85;;;6.90;99.90;;;;;;5051046;28;20041;-56
2021/11/15 10:11:50;;;;;;;25.80;13.35;;;6.90;99.90;;;;;;5050977;28;21308;-50
2021/11/15 10:14:17;;;;;;;29.83;13.98;;;6.90;99.90;;;;;;5050842;28;20044;-55
2021/11/15 10:16:59;;;;;;;32.80;14.45;;;6.90;99.90;;;;;;5050931;28;20037;-50
2021/11/15 10:19:27;;;;;;;32.85;13.98;;;6.90;99.90;;;;;;5049198;28;20383;-48
2021/11/15 10:21:59;;;;;;;33.80;14.38;;;6.90;99.90;;;;;;5050621;28;20103;-51
2021/11/15 10:24:34;;;;;;;29.85;15.02;;;6.80;99.90;;;;;;5049125;28;20060;-52
2021/11/15 10:27:07;;;;;;;30.60;13.60;;;6.80;99.90;;;;;;5049834;28;20045;-48
2021/11/15 10:29:45;;;;;;;30.35;14.20;;;6.70;99.90;;;;;;5049871;28;20114;-52
2021/11/15 10:32:17;;;;;;;31.65;14.73;;;6.60;99.90;;;;;;5048888;28;20099;-50
2021/11/15 10:34:43;;;;;;;;;;;6.60;99.90;;;;;;5047988;28;20044;-49
2021/11/15 10:37:18;;;;;;;32.55;16.15;;;6.60;99.90;;;;;;5050345;28;19947;-50
2021/11/15 10:40:11;;;;;;;38.05;16.40;;;6.60;99.90;;;;;;5049540;28;20076;-50
2021/11/15 10:42:50;;;;;;;38.10;17.55;;;6.60;99.90;;;;;;5030937;28;20307;-50
2021/11/15 10:45:22;;;;;;;35.08;17.17;;;6.50;99.90;;;;;;5053103;28;20107;-58
2021/11/15 10:47:54;;;;;;;47.30;19.75;;;6.50;99.90;;;;;;5050517;28;20045;-57
2021/11/15 10:50:32;;;;;;;47.33;20.92;;;6.40;99.90;;;;;;5049969;28;20040;-58
2021/11/15 10:53:08;;;;;;;44.22;21.02;;;6.40;99.90;;;;;;5050164;28;20041;-57
2021/11/15 10:55:40;;;;;;;47.13;21.75;;;6.40;99.90;;;;;;5048556;28;20087;-57
2021/11/15 10:58:16;;;;;;;46.33;21.05;;;6.40;99.90;;;;;;5049462;28;20129;-57
2021/11/15 11:01:19;;;;;;;47.78;21.80;;;6.50;99.90;;;;;;5048067;28;20049;-58
2021/11/15 11:03:37;;;;;;;54.28;22.77;;;6.50;99.90;;;;;;5050791;28;20044;-58
2021/11/15 11:06:07;;;;;;;52.00;23.58;;;6.40;99.90;;;;;;5050131;28;20068;-57
2021/11/15 11:08:42;;;;;;;63.97;24.95;;;6.50;99.90;;;;;;5044893;28;20114;-57
2021/11/15 11:11:24;;;;;;;61.40;25.80;;;6.50;99.90;;;;;;5029784;28;20045;-57
2021/11/15 11:13:56;;;;;;;;;;;6.50;99.90;;;;;;5049612;28;20049;-57
2021/11/15 11:16:43;;;;;;;59.20;27.13;;;6.50;99.90;;;;;;5049703;28;19921;-57
2021/11/15 11:19:31;;;;;;;61.28;28.67;;;6.50;99.90;;;;;;5042188;28;20052;-57
2021/11/15 11:27:15;;;;;;;72.35;31.15;;;6.50;99.90;;;;;;5049008;28;20527;-57
2021/11/15 11:29:45;;;;;;;74.85;34.78;;;6.50;99.90;;;;;;5051507;28;20045;-57
2021/11/15 11:32:15;;;;;;;63.63;29.35;;;6.40;99.90;;;;;;5049111;28;20123;-57
2021/11/15 11:34:42;;;;;;;72.03;29.92;;;6.50;99.90;;;;;;5063296;28;20080;-57
2021/11/15 11:37:13;;;;;;;77.80;34.25;;;6.50;99.90;;;;;;5045424;28;20072;-57
2021/11/15 11:39:44;;;;;;;74.82;33.17;;;6.50;99.90;;;;;;5049716;28;20515;-57
2021/11/15 11:42:15;;;;;;;73.77;35.20;;;6.50;99.90;;;;;;5047922;28;20040;-57
2021/11/15 11:44:43;;;;;;;73.22;32.78;;;6.50;99.90;;;;;;5048798;28;20433;-57
2021/11/15 11:47:11;;;;;;;78.13;34.35;;;6.50;99.90;;;;;;5056054;28;20052;-57
2021/11/15 11:49:38;;;;;;;73.45;33.47;;;6.50;99.90;;;;;;5049269;28;20460;-57
2021/11/15 11:52:08;;;;;;;75.22;35.10;;;6.50;99.90;;;;;;5048016;28;20044;-57
2021/11/15 11:54:43;;;;;;;75.32;30.27;;;6.60;99.90;;;;;;5046362;28;20515;-57
2021/11/15 11:57:15;;;;;;;73.10;34.55;;;6.50;99.90;;;;;;5048263;28;20051;-57
2021/11/15 11:59:47;;;;;;;78.38;35.70;;;6.60;99.90;;;;;;5048824;28;20106;-57
2021/11/15 12:02:26;;;;;;;80.13;35.83;;;6.60;99.90;;;;;;5046822;28;20080;-57
2021/11/15 12:04:59;;;;;;;80.95;35.92;;;6.60;99.90;;;;;;5048188;28;20055;-57
2021/11/15 12:07:31;;;;;;;77.30;36.13;;;6.60;99.90;;;;;;5062916;28;20053;-57
2021/11/15 12:10:09;;;;;;;78.10;36.55;;;6.60;99.90;;;;;;5047904;28;20116;-56
2021/11/15 12:12:51;;;;;;;69.88;33.95;;;6.60;99.90;;;;;;5046529;28;20384;-55
2021/11/15 12:15:50;;;;;;;82.73;37.57;;;6.60;99.90;;;;;;5043084;28;20377;-55
2021/11/15 12:18:24;;;;;;;73.97;33.47;;;6.60;99.90;;;;;;5020230;28;20136;-57
2021/11/15 12:21:03;;;;;;;85.38;43.92;;;6.60;99.90;;;;;;5010688;28;20137;-57
2021/11/15 12:23:34;;;;;;;79.43;35.95;;;6.60;99.90;;;;;;5014468;28;20052;-57
2021/11/15 12:26:15;;;;;;;72.45;35.95;;;6.60;99.90;;;;;;5017008;28;20100;-57
2021/11/15 12:28:49;;;;;;;76.65;36.25;;;6.60;99.90;;;;;;4999061;28;20442;-57
2021/11/15 12:31:36;;;;;;;82.40;38.42;;;6.60;99.90;;;;;;5014373;28;20141;-57
2021/11/15 12:34:06;;;;;;;82.88;39.63;;;6.60;99.90;;;;;;5016405;28;20595;-56
2021/11/15 12:36:41;;;;;;;91.43;39.80;;;6.60;99.90;;;;;;4994373;28;20042;-57
2021/11/15 12:39:10;;;;;;;87.40;39.45;;;6.60;99.90;;;;;;5000810;28;20136;-57
2021/11/15 12:41:38;;;;;;;79.18;35.95;;;6.60;99.90;;;;;;4997607;28;20073;-57
2021/11/15 12:44:09;;;;;;;78.07;38.30;;;6.60;99.90;;;;;;5016966;28;20050;-57
2021/11/15 12:46:55;;;;;;;78.07;36.83;;;6.70;99.90;;;;;;5014339;28;20064;-56
2021/11/15 12:49:23;;;;;;;78.15;38.05;;;6.70;99.90;;;;;;4990812;28;20041;-57
2021/11/15 12:52:10;;;;;;;74.15;33.28;;;6.70;99.90;;;;;;5008606;28;21331;-57